sensor_id;sensor_type;location;lat;lon;timestamp;pressure;altitude;pressure_sealevel;temperature;humidity
24746;BME280;12845;52.042;6.838;2023-03-29T00:01:35;-18168.63;;;5.23;100.00
24746;BME280;12845;52.042;6.838;2023-03-29T00:04:06;-18168.50;;;5.22;100.00
24746;BME280;12845;52.042;6.838;2023-03-29T00:06:32;-18168.50;;;5.22;100.00
24746;BME280;12845;52.042;6.838;2023-03-29T00:08:58;-18168.63;;;5.23;100.00
24746;BME280;12845;52.042;6.838;2023-03-29T00:11:25;-18168.63;;;5.23;100.00
24746;BME280;12845;52.042;6.838;2023-03-29T00:13:51;-18167.41;;;5.18;100.00
24746;BME280;12845;52.042;6.838;2023-03-29T00:16:17;-18167.25;;;5.17;100.00
24746;BME280;12845;52.042;6.838;2023-03-29T00:18:43;-18167.25;;;5.17;100.00
24746;BME280;12845;52.042;6.838;2023-03-29T00:21:09;-18166.28;;;5.14;100.00
24746;BME280;12845;52.042;6.838;2023-03-29T00:23:35;-18165.31;;;5.10;100.00
24746;BME280;12845;52.042;6.838;2023-03-29T00:26:00;-18165.75;;;5.12;100.00
24746;BME280;12845;52.042;6.838;2023-03-29T00:28:26;-18166.44;;;5.14;100.00
24746;BME280;12845;52.042;6.838;2023-03-29T00:30:51;-18165.75;;;5.12;100.00
24746;BME280;12845;52.042;6.838;2023-03-29T00:33:18;-18165.31;;;5.10;100.00
24746;BME280;12845;52.042;6.838;2023-03-29T00:35:45;-18165.59;;;5.11;100.00
24746;BME280;12845;52.042;6.838;2023-03-29T00:38:13;-18166.16;;;5.13;100.00
24746;BME280;12845;52.042;6.838;2023-03-29T00:40:44;-18165.88;;;5.12;100.00
24746;BME280;12845;52.042;6.838;2023-03-29T00:43:12;-18166.72;;;5.15;100.00
24746;BME280;12845;52.042;6.838;2023-03-29T00:45:37;-18167.81;;;5.19;100.00
24746;BME280;12845;52.042;6.838;2023-03-29T00:48:09;-18168.63;;;5.23;100.00
24746;BME280;12845;52.042;6.838;2023-03-29T00:50:39;-18169.06;;;5.24;100.00
24746;BME280;12845;52.042;6.838;2023-03-29T00:53:13;-18167.41;;;5.18;100.00
24746;BME280;12845;52.042;6.838;2023-03-29T00:56:09;-18168.63;;;5.23;100.00
24746;BME280;12845;52.042;6.838;2023-03-29T00:59:21;-18169.75;;;5.27;100.00
24746;BME280;12845;52.042;6.838;2023-03-29T01:01:50;-18168.91;;;5.24;100.00
24746;BME280;12845;52.042;6.838;2023-03-29T01:07:09;-18168.38;;;5.22;100.00
24746;BME280;12845;52.042;6.838;2023-03-29T01:09:41;-18168.09;;;5.20;100.00
24746;BME280;12845;52.042;6.838;2023-03-29T01:12:15;-18169.47;;;5.26;100.00
24746;BME280;12845;52.042;6.838;2023-03-29T01:14:53;-18169.06;;;5.24;100.00
24746;BME280;12845;52.042;6.838;2023-03-29T01:17:21;-18169.47;;;5.26;100.00
24746;BME280;12845;52.042;6.838;2023-03-29T01:19:57;-18170.28;;;5.29;100.00
24746;BME280;12845;52.042;6.838;2023-03-29T01:25:01;-18168.91;;;5.24;100.00
24746;BME280;12845;52.042;6.838;2023-03-29T01:27:48;-18170.16;;;5.28;100.00
24746;BME280;12845;52.042;6.838;2023-03-29T01:30:21;-18168.38;;;5.22;100.00
24746;BME280;12845;52.042;6.838;2023-03-29T01:33:01;-18168.38;;;5.22;100.00
24746;BME280;12845;52.042;6.838;2023-03-29T01:35:42;-18168.50;;;5.22;100.00
24746;BME280;12845;52.042;6.838;2023-03-29T01:38:19;-18165.19;;;5.10;100.00
24746;BME280;12845;52.042;6.838;2023-03-29T01:40:47;-18165.47;;;5.11;100.00
24746;BME280;12845;52.042;6.838;2023-03-29T01:43:23;-18165.06;;;5.09;100.00
24746;BME280;12845;52.042;6.838;2023-03-29T01:46:05;-18166.16;;;5.13;100.00
24746;BME280;12845;52.042;6.838;2023-03-29T01:48:46;-18166.97;;;5.16;100.00
24746;BME280;12845;52.042;6.838;2023-03-29T01:51:35;-18166.97;;;5.16;100.00
24746;BME280;12845;52.042;6.838;2023-03-29T01:54:03;-18166.44;;;5.14;100.00
24746;BME280;12845;52.042;6.838;2023-03-29T01:56:33;-18166.97;;;5.16;100.00
24746;BME280;12845;52.042;6.838;2023-03-29T01:59:03;-18169.19;;;5.25;100.00
24746;BME280;12845;52.042;6.838;2023-03-29T02:01:35;-18169.59;;;5.26;100.00
24746;BME280;12845;52.042;6.838;2023-03-29T02:04:09;-18170.03;;;5.28;100.00
24746;BME280;12845;52.042;6.838;2023-03-29T02:06:38;-18170.72;;;5.30;100.00
24746;BME280;12845;52.042;6.838;2023-03-29T02:09:05;-18170.28;;;5.29;100.00
24746;BME280;12845;52.042;6.838;2023-03-29T02:11:32;-18170.16;;;5.28;100.00
24746;BME280;12845;52.042;6.838;2023-03-29T02:13:58;-18170.84;;;5.31;100.00
24746;BME280;12845;52.042;6.838;2023-03-29T02:16:25;-18171.00;;;5.31;100.00
24746;BME280;12845;52.042;6.838;2023-03-29T02:18:52;-18170.56;;;5.30;100.00
24746;BME280;12845;52.042;6.838;2023-03-29T02:21:43;-18171.94;;;5.35;100.00
24746;BME280;12845;52.042;6.838;2023-03-29T02:24:14;-18173.34;;;5.40;100.00
24746;BME280;12845;52.042;6.838;2023-03-29T02:26:41;-18173.34;;;5.40;100.00
24746;BME280;12845;52.042;6.838;2023-03-29T02:29:06;-18172.22;;;5.36;100.00
24746;BME280;12845;52.042;6.838;2023-03-29T02:31:49;-18173.47;;;5.40;100.00
24746;BME280;12845;52.042;6.838;2023-03-29T02:34:24;-18173.63;;;5.41;100.00
24746;BME280;12845;52.042;6.838;2023-03-29T02:36:54;-18172.78;;;5.38;100.00
24746;BME280;12845;52.042;6.838;2023-03-29T02:39:24;-18174.16;;;5.43;100.00
24746;BME280;12845;52.042;6.838;2023-03-29T02:41:51;-18174.03;;;5.42;100.00
24746;BME280;12845;52.042;6.838;2023-03-29T02:44:20;-18174.44;;;5.44;100.00
24746;BME280;12845;52.042;6.838;2023-03-29T02:46:49;-18175.81;;;5.49;100.00
24746;BME280;12845;52.042;6.838;2023-03-29T02:49:15;-18175.81;;;5.49;100.00
24746;BME280;12845;52.042;6.838;2023-03-29T02:51:41;-18175.00;;;5.46;100.00
24746;BME280;12845;52.042;6.838;2023-03-29T02:54:11;-18174.44;;;5.44;100.00
24746;BME280;12845;52.042;6.838;2023-03-29T02:56:46;-18176.22;;;5.51;100.00
24746;BME280;12845;52.042;6.838;2023-03-29T02:59:15;-18174.44;;;5.44;100.00
24746;BME280;12845;52.042;6.838;2023-03-29T03:01:40;-18176.78;;;5.53;100.00
24746;BME280;12845;52.042;6.838;2023-03-29T03:04:10;-18179.97;;;5.64;100.00
24746;BME280;12845;52.042;6.838;2023-03-29T03:06:36;-18176.09;;;5.50;100.00
24746;BME280;12845;52.042;6.838;2023-03-29T03:09:03;-18175.69;;;5.49;100.00
24746;BME280;12845;52.042;6.838;2023-03-29T03:11:30;-18174.84;;;5.46;100.00
24746;BME280;12845;52.042;6.838;2023-03-29T03:13:56;-18174.84;;;5.46;100.00
24746;BME280;12845;52.042;6.838;2023-03-29T03:16:21;-18175.25;;;5.47;100.00
24746;BME280;12845;52.042;6.838;2023-03-29T03:18:48;-18175.13;;;5.47;100.00
24746;BME280;12845;52.042;6.838;2023-03-29T03:21:15;-18174.84;;;5.46;100.00
24746;BME280;12845;52.042;6.838;2023-03-29T03:23:42;-18176.09;;;5.50;100.00
24746;BME280;12845;52.042;6.838;2023-03-29T03:26:07;-18175.53;;;5.48;100.00
24746;BME280;12845;52.042;6.838;2023-03-29T03:28:33;-18175.25;;;5.47;100.00
24746;BME280;12845;52.042;6.838;2023-03-29T03:30:59;-18176.78;;;5.53;100.00
24746;BME280;12845;52.042;6.838;2023-03-29T03:33:24;-18177.47;;;5.55;100.00
24746;BME280;12845;52.042;6.838;2023-03-29T03:35:51;-18178.84;;;5.60;100.00
24746;BME280;12845;52.042;6.838;2023-03-29T03:38:21;-18179.25;;;5.62;100.00
24746;BME280;12845;52.042;6.838;2023-03-29T03:40:54;-18179.69;;;5.63;100.00
24746;BME280;12845;52.042;6.838;2023-03-29T03:43:19;-18179.25;;;5.62;100.00
24746;BME280;12845;52.042;6.838;2023-03-29T03:45:45;-18180.78;;;5.68;100.00
24746;BME280;12845;52.042;6.838;2023-03-29T03:48:11;-18181.75;;;5.71;100.00
24746;BME280;12845;52.042;6.838;2023-03-29T03:50:36;-18180.09;;;5.65;100.00
24746;BME280;12845;52.042;6.838;2023-03-29T03:53:02;-18180.78;;;5.68;100.00
24746;BME280;12845;52.042;6.838;2023-03-29T03:55:27;-18181.19;;;5.69;100.00
24746;BME280;12845;52.042;6.838;2023-03-29T03:57:54;-18178.16;;;5.58;100.00
24746;BME280;12845;52.042;6.838;2023-03-29T04:00:19;-18178.31;;;5.58;100.00
24746;BME280;12845;52.042;6.838;2023-03-29T04:02:46;-18179.41;;;5.62;100.00
24746;BME280;12845;52.042;6.838;2023-03-29T04:05:12;-18178.84;;;5.60;100.00
24746;BME280;12845;52.042;6.838;2023-03-29T04:07:38;-18179.00;;;5.61;100.00
24746;BME280;12845;52.042;6.838;2023-03-29T04:10:05;-18177.63;;;5.56;100.00
24746;BME280;12845;52.042;6.838;2023-03-29T04:12:30;-18177.19;;;5.54;100.00
24746;BME280;12845;52.042;6.838;2023-03-29T04:14:56;-18179.25;;;5.62;100.00
24746;BME280;12845;52.042;6.838;2023-03-29T04:17:21;-18180.78;;;5.68;100.00
24746;BME280;12845;52.042;6.838;2023-03-29T04:19:47;-18183.53;;;5.78;100.00
24746;BME280;12845;52.042;6.838;2023-03-29T04:22:12;-18183.53;;;5.78;100.00
24746;BME280;12845;52.042;6.838;2023-03-29T04:24:37;-18182.03;;;5.72;100.00
24746;BME280;12845;52.042;6.838;2023-03-29T04:27:03;-18182.16;;;5.73;100.00
24746;BME280;12845;52.042;6.838;2023-03-29T04:29:28;-18183.41;;;5.77;100.00
24746;BME280;12845;52.042;6.838;2023-03-29T04:31:54;-18182.84;;;5.75;100.00
24746;BME280;12845;52.042;6.838;2023-03-29T04:34:20;-18181.88;;;5.72;100.00
24746;BME280;12845;52.042;6.838;2023-03-29T04:36:46;-18181.06;;;5.69;100.00
24746;BME280;12845;52.042;6.838;2023-03-29T04:39:14;-18182.72;;;5.75;100.00
24746;BME280;12845;52.042;6.838;2023-03-29T04:41:42;-18182.84;;;5.75;100.00
24746;BME280;12845;52.042;6.838;2023-03-29T04:44:07;-18183.00;;;5.76;100.00
24746;BME280;12845;52.042;6.838;2023-03-29T04:46:33;-18180.91;;;5.68;100.00
24746;BME280;12845;52.042;6.838;2023-03-29T04:48:58;-18181.19;;;5.69;100.00
24746;BME280;12845;52.042;6.838;2023-03-29T04:51:24;-18180.50;;;5.66;100.00
24746;BME280;12845;52.042;6.838;2023-03-29T04:53:49;-18180.78;;;5.68;100.00
24746;BME280;12845;52.042;6.838;2023-03-29T04:56:15;-18181.75;;;5.71;100.00
24746;BME280;12845;52.042;6.838;2023-03-29T04:58:41;-18181.75;;;5.71;100.00
24746;BME280;12845;52.042;6.838;2023-03-29T05:01:08;-18180.50;;;5.66;100.00
24746;BME280;12845;52.042;6.838;2023-03-29T05:03:34;-18181.06;;;5.69;100.00
24746;BME280;12845;52.042;6.838;2023-03-29T05:06:07;-18180.66;;;5.67;100.00
24746;BME280;12845;52.042;6.838;2023-03-29T05:08:34;-18182.16;;;5.73;100.00
24746;BME280;12845;52.042;6.838;2023-03-29T05:10:59;-18182.84;;;5.75;100.00
24746;BME280;12845;52.042;6.838;2023-03-29T05:13:25;-18183.97;;;5.79;100.00
24746;BME280;12845;52.042;6.838;2023-03-29T05:15:51;-18183.25;;;5.77;100.00
24746;BME280;12845;52.042;6.838;2023-03-29T05:18:16;-18184.09;;;5.80;100.00
24746;BME280;12845;52.042;6.838;2023-03-29T05:20:42;-18183.81;;;5.79;100.00
24746;BME280;12845;52.042;6.838;2023-03-29T05:23:07;-18185.47;;;5.85;100.00
24746;BME280;12845;52.042;6.838;2023-03-29T05:25:32;-18185.75;;;5.86;100.00
24746;BME280;12845;52.042;6.838;2023-03-29T05:27:58;-18186.72;;;5.89;100.00
24746;BME280;12845;52.042;6.838;2023-03-29T05:30:23;-18187.00;;;5.91;100.00
24746;BME280;12845;52.042;6.838;2023-03-29T05:32:49;-18185.06;;;5.83;100.00
24746;BME280;12845;52.042;6.838;2023-03-29T05:35:14;-18184.66;;;5.82;100.00
24746;BME280;12845;52.042;6.838;2023-03-29T05:37:40;-18185.88;;;5.86;100.00
24746;BME280;12845;52.042;6.838;2023-03-29T05:40:06;-18186.03;;;5.87;100.00
24746;BME280;12845;52.042;6.838;2023-03-29T05:42:34;-18186.84;;;5.90;100.00
24746;BME280;12845;52.042;6.838;2023-03-29T05:45:00;-18187.53;;;5.93;100.00
24746;BME280;12845;52.042;6.838;2023-03-29T05:47:26;-18187.25;;;5.92;100.00
24746;BME280;12845;52.042;6.838;2023-03-29T05:49:52;-18186.56;;;5.89;100.00
24746;BME280;12845;52.042;6.838;2023-03-29T05:52:17;-18187.00;;;5.91;100.00
24746;BME280;12845;52.042;6.838;2023-03-29T05:54:43;-18188.94;;;5.98;100.00
24746;BME280;12845;52.042;6.838;2023-03-29T05:57:09;-18189.75;;;6.01;100.00
24746;BME280;12845;52.042;6.838;2023-03-29T05:59:34;-18190.44;;;6.03;100.00
24746;BME280;12845;52.042;6.838;2023-03-29T06:01:59;-18190.03;;;6.02;100.00
24746;BME280;12845;52.042;6.838;2023-03-29T06:04:27;-18191.81;;;6.08;100.00
24746;BME280;12845;52.042;6.838;2023-03-29T06:06:52;-18192.25;;;6.10;100.00
24746;BME280;12845;52.042;6.838;2023-03-29T06:09:19;-18193.63;;;6.15;100.00
24746;BME280;12845;52.042;6.838;2023-03-29T06:11:44;-18196.09;;;6.24;100.00
24746;BME280;12845;52.042;6.838;2023-03-29T06:14:10;-18198.59;;;6.33;100.00
24746;BME280;12845;52.042;6.838;2023-03-29T06:16:37;-18195.13;;;6.21;100.00
24746;BME280;12845;52.042;6.838;2023-03-29T06:19:03;-18196.66;;;6.26;100.00
24746;BME280;12845;52.042;6.838;2023-03-29T06:21:29;-18199.13;;;6.36;100.00
24746;BME280;12845;52.042;6.838;2023-03-29T06:23:55;-18198.03;;;6.31;100.00
24746;BME280;12845;52.042;6.838;2023-03-29T06:26:21;-18200.78;;;6.42;100.00
24746;BME280;12845;52.042;6.838;2023-03-29T06:28:46;-18202.31;;;6.47;100.00
24746;BME280;12845;52.042;6.838;2023-03-29T06:31:12;-18201.06;;;6.43;100.00
24746;BME280;12845;52.042;6.838;2023-03-29T06:33:38;-18201.75;;;6.45;100.00
24746;BME280;12845;52.042;6.838;2023-03-29T06:36:04;-18202.31;;;6.47;100.00
24746;BME280;12845;52.042;6.838;2023-03-29T06:38:30;-18202.72;;;6.49;100.00
24746;BME280;12845;52.042;6.838;2023-03-29T06:41:06;-18202.03;;;6.46;100.00
24746;BME280;12845;52.042;6.838;2023-03-29T06:43:32;-18201.47;;;6.44;100.00
24746;BME280;12845;52.042;6.838;2023-03-29T06:45:59;-18204.94;;;6.57;100.00
24746;BME280;12845;52.042;6.838;2023-03-29T06:48:25;-18203.97;;;6.53;100.00
24746;BME280;12845;52.042;6.838;2023-03-29T06:50:50;-18203.97;;;6.53;100.00
24746;BME280;12845;52.042;6.838;2023-03-29T06:53:16;-18205.06;;;6.58;100.00
24746;BME280;12845;52.042;6.838;2023-03-29T06:55:42;-18203.28;;;6.51;100.00
24746;BME280;12845;52.042;6.838;2023-03-29T06:58:07;-18205.06;;;6.58;100.00
24746;BME280;12845;52.042;6.838;2023-03-29T07:00:33;-18205.06;;;6.58;100.00
24746;BME280;12845;52.042;6.838;2023-03-29T07:03:06;-18206.16;;;6.62;100.00
24746;BME280;12845;52.042;6.838;2023-03-29T07:05:34;-18207.28;;;6.66;100.00
24746;BME280;12845;52.042;6.838;2023-03-29T07:08:05;-18208.66;;;6.71;100.00
24746;BME280;12845;52.042;6.838;2023-03-29T07:10:35;-18211.69;;;6.82;100.00
24746;BME280;12845;52.042;6.838;2023-03-29T07:13:03;-18211.00;;;6.80;100.00
24746;BME280;12845;52.042;6.838;2023-03-29T07:15:30;-18211.69;;;6.82;100.00
24746;BME280;12845;52.042;6.838;2023-03-29T07:17:56;-18213.19;;;6.88;100.00
24746;BME280;12845;52.042;6.838;2023-03-29T07:20:22;-18215.25;;;6.95;100.00
24746;BME280;12845;52.042;6.838;2023-03-29T07:22:49;-18217.75;;;7.05;100.00
24746;BME280;12845;52.042;6.838;2023-03-29T07:25:20;-18220.38;;;7.14;100.00
24746;BME280;12845;52.042;6.838;2023-03-29T07:27:46;-18220.91;;;7.16;100.00
24746;BME280;12845;52.042;6.838;2023-03-29T07:30:17;-18223.41;;;7.26;100.00
24746;BME280;12845;52.042;6.838;2023-03-29T07:32:44;-18225.88;;;7.35;100.00
24746;BME280;12845;52.042;6.838;2023-03-29T07:35:11;-18226.44;;;7.37;100.00
24746;BME280;12845;52.042;6.838;2023-03-29T07:37:37;-18228.50;;;7.44;100.00
24746;BME280;12845;52.042;6.838;2023-03-29T07:40:05;-18229.88;;;7.50;100.00
24746;BME280;12845;52.042;6.838;2023-03-29T07:42:38;-18231.09;;;7.54;100.00
24746;BME280;12845;52.042;6.838;2023-03-29T07:45:05;-18230.41;;;7.52;100.00
24746;BME280;12845;52.042;6.838;2023-03-29T07:47:31;-18231.25;;;7.55;100.00
24746;BME280;12845;52.042;6.838;2023-03-29T07:49:57;-18234.41;;;7.66;100.00
24746;BME280;12845;52.042;6.838;2023-03-29T07:52:23;-18236.88;;;7.76;100.00
24746;BME280;12845;52.042;6.838;2023-03-29T07:54:48;-18240.88;;;7.90;100.00
24746;BME280;12845;52.042;6.838;2023-03-29T07:57:14;-18241.44;;;7.93;100.00
24746;BME280;12845;52.042;6.838;2023-03-29T07:59:40;-18241.56;;;7.93;100.00
24746;BME280;12845;52.042;6.838;2023-03-29T08:02:05;-18241.44;;;7.93;100.00
24746;BME280;12845;52.042;6.838;2023-03-29T08:04:31;-18241.56;;;7.93;100.00
24746;BME280;12845;52.042;6.838;2023-03-29T08:06:57;-18241.44;;;7.93;100.00
24746;BME280;12845;52.042;6.838;2023-03-29T08:09:22;-18243.38;;;8.00;100.00
24746;BME280;12845;52.042;6.838;2023-03-29T08:11:48;-18243.22;;;7.99;100.00
24746;BME280;12845;52.042;6.838;2023-03-29T08:14:13;-18244.75;;;8.05;100.00
24746;BME280;12845;52.042;6.838;2023-03-29T08:16:39;-18245.16;;;8.06;100.00
24746;BME280;12845;52.042;6.838;2023-03-29T08:19:04;-18244.88;;;8.05;100.00
24746;BME280;12845;52.042;6.838;2023-03-29T08:21:30;-18246.38;;;8.11;100.00
24746;BME280;12845;52.042;6.838;2023-03-29T08:23:56;-18245.69;;;8.08;100.00
24746;BME280;12845;52.042;6.838;2023-03-29T08:26:21;-18247.22;;;8.14;100.00
24746;BME280;12845;52.042;6.838;2023-03-29T08:28:47;-18249.69;;;8.23;100.00
24746;BME280;12845;52.042;6.838;2023-03-29T08:31:12;-18248.72;;;8.20;100.00
24746;BME280;12845;52.042;6.838;2023-03-29T08:33:38;-18249.28;;;8.22;100.00
24746;BME280;12845;52.042;6.838;2023-03-29T08:36:03;-18251.34;;;8.29;100.00
24746;BME280;12845;52.042;6.838;2023-03-29T08:38:29;-18254.94;;;8.43;100.00
24746;BME280;12845;52.042;6.838;2023-03-29T08:40:55;-18253.41;;;8.37;100.00
24746;BME280;12845;52.042;6.838;2023-03-29T08:43:33;-18252.44;;;8.33;100.00
24746;BME280;12845;52.042;6.838;2023-03-29T08:46:22;-18252.44;;;8.33;100.00
24746;BME280;12845;52.042;6.838;2023-03-29T08:48:59;-18254.53;;;8.41;100.00
24746;BME280;12845;52.042;6.838;2023-03-29T08:51:30;-18255.22;;;8.44;100.00
24746;BME280;12845;52.042;6.838;2023-03-29T08:54:10;-18255.22;;;8.44;100.00
24746;BME280;12845;52.042;6.838;2023-03-29T08:56:38;-18256.31;;;8.48;100.00
24746;BME280;12845;52.042;6.838;2023-03-29T08:59:12;-18257.56;;;8.52;100.00
24746;BME280;12845;52.042;6.838;2023-03-29T09:01:42;-18256.31;;;8.48;100.00
24746;BME280;12845;52.042;6.838;2023-03-29T09:04:20;-18258.78;;;8.57;100.00
24746;BME280;12845;52.042;6.838;2023-03-29T09:06:47;-18261.00;;;8.65;100.00
24746;BME280;12845;52.042;6.838;2023-03-29T09:09:17;-18262.91;;;8.72;100.00
24746;BME280;12845;52.042;6.838;2023-03-29T09:20:03;-18259.63;;;8.60;100.00
24746;BME280;12845;52.042;6.838;2023-03-29T09:28:13;-18257.97;;;8.54;100.00
24746;BME280;12845;52.042;6.838;2023-03-29T09:31:13;-18258.78;;;8.57;100.00
24746;BME280;12845;52.042;6.838;2023-03-29T09:33:43;-18260.16;;;8.62;100.00
24746;BME280;12845;52.042;6.838;2023-03-29T09:36:16;-18262.50;;;8.71;100.00
24746;BME280;12845;52.042;6.838;2023-03-29T09:38:45;-18264.84;;;8.79;100.00
24746;BME280;12845;52.042;6.838;2023-03-29T09:43:54;-18269.38;;;8.96;100.00
24746;BME280;12845;52.042;6.838;2023-03-29T09:46:30;-18272.00;;;9.06;100.00
24746;BME280;12845;52.042;6.838;2023-03-29T09:49:00;-18274.19;;;9.14;100.00
24746;BME280;12845;52.042;6.838;2023-03-29T09:51:29;-18272.81;;;9.09;100.00
24746;BME280;12845;52.042;6.838;2023-03-29T09:53:57;-18272.28;;;9.07;100.00
24746;BME280;12845;52.042;6.838;2023-03-29T09:56:24;-18274.75;;;9.16;100.00
24746;BME280;12845;52.042;6.838;2023-03-29T09:58:51;-18278.88;;;9.32;100.00
24746;BME280;12845;52.042;6.838;2023-03-29T10:01:16;-18277.50;;;9.26;100.00
24746;BME280;12845;52.042;6.838;2023-03-29T10:03:50;-18279.16;;;9.33;100.00
24746;BME280;12845;52.042;6.838;2023-03-29T10:06:16;-18279.16;;;9.33;100.00
24746;BME280;12845;52.042;6.838;2023-03-29T10:08:49;-18280.66;;;9.38;100.00
24746;BME280;12845;52.042;6.838;2023-03-29T10:11:27;-18278.59;;;9.31;100.00
24746;BME280;12845;52.042;6.838;2023-03-29T10:13:54;-18277.91;;;9.28;100.00
24746;BME280;12845;52.042;6.838;2023-03-29T10:16:23;-18279.84;;;9.35;100.00
24746;BME280;12845;52.042;6.838;2023-03-29T10:18:50;-18279.28;;;9.33;100.00
24746;BME280;12845;52.042;6.838;2023-03-29T10:21:17;-18280.53;;;9.38;100.00
24746;BME280;12845;52.042;6.838;2023-03-29T10:23:47;-18278.06;;;9.29;100.00
24746;BME280;12845;52.042;6.838;2023-03-29T10:26:27;-18278.59;;;9.31;100.00
24746;BME280;12845;52.042;6.838;2023-03-29T10:28:54;-18278.19;;;9.29;100.00
24746;BME280;12845;52.042;6.838;2023-03-29T10:31:22;-18274.88;;;9.17;100.00
24746;BME280;12845;52.042;6.838;2023-03-29T10:33:53;-18273.66;;;9.12;100.00
24746;BME280;12845;52.042;6.838;2023-03-29T10:36:20;-18272.81;;;9.09;100.00
24746;BME280;12845;52.042;6.838;2023-03-29T10:38:46;-18273.66;;;9.12;100.00
24746;BME280;12845;52.042;6.838;2023-03-29T10:41:13;-18273.38;;;9.11;100.00
24746;BME280;12845;52.042;6.838;2023-03-29T10:43:48;-18273.94;;;9.13;100.00
24746;BME280;12845;52.042;6.838;2023-03-29T10:48:51;-18276.53;;;9.23;100.00
24746;BME280;12845;52.042;6.838;2023-03-29T10:51:19;-18281.34;;;9.41;100.00
24746;BME280;12845;52.042;6.838;2023-03-29T10:53:45;-18286.31;;;9.59;100.00
24746;BME280;12845;52.042;6.838;2023-03-29T10:59:22;-18294.13;;;9.88;100.00
24746;BME280;12845;52.042;6.838;2023-03-29T11:10:58;-18299.22;;;10.07;100.00
24746;BME280;12845;52.042;6.838;2023-03-29T11:16:34;-18300.88;;;10.13;100.00
24746;BME280;12845;52.042;6.838;2023-03-29T11:19:14;-18305.13;;;10.29;100.00
24746;BME280;12845;52.042;6.838;2023-03-29T11:27:27;-18308.56;;;10.42;100.00
24746;BME280;12845;52.042;6.838;2023-03-29T11:30:06;-18306.50;;;10.34;100.00
24746;BME280;12845;52.042;6.838;2023-03-29T11:41:20;-18309.13;;;10.44;100.00
24746;BME280;12845;52.042;6.838;2023-03-29T11:44:17;-18313.25;;;10.59;100.00
24746;BME280;12845;52.042;6.838;2023-03-29T11:49:51;-18312.00;;;10.55;100.00
24746;BME280;12845;52.042;6.838;2023-03-29T11:52:24;-18314.06;;;10.63;100.00
24746;BME280;12845;52.042;6.838;2023-03-29T11:55:12;-18315.59;;;10.68;100.00
24746;BME280;12845;52.042;6.838;2023-03-29T11:57:43;-18315.44;;;10.68;100.00
24746;BME280;12845;52.042;6.838;2023-03-29T12:00:12;-18313.53;;;10.60;100.00
24746;BME280;12845;52.042;6.838;2023-03-29T12:05:41;-18315.31;;;10.67;100.00
24746;BME280;12845;52.042;6.838;2023-03-29T12:08:12;-18313.94;;;10.62;100.00
24746;BME280;12845;52.042;6.838;2023-03-29T12:11:13;-18315.03;;;10.66;100.00
24746;BME280;12845;52.042;6.838;2023-03-29T12:13:48;-18314.06;;;10.63;100.00
24746;BME280;12845;52.042;6.838;2023-03-29T12:16:36;-18314.63;;;10.65;100.00
24746;BME280;12845;52.042;6.838;2023-03-29T12:19:17;-18313.38;;;10.60;100.00
24746;BME280;12845;52.042;6.838;2023-03-29T12:21:46;-18312.28;;;10.56;100.00
24746;BME280;12845;52.042;6.838;2023-03-29T12:24:14;-18313.53;;;10.60;100.00
24746;BME280;12845;52.042;6.838;2023-03-29T12:30:15;-18316.41;;;10.71;100.00
24746;BME280;12845;52.042;6.838;2023-03-29T12:32:49;-18318.31;;;10.78;100.00
24746;BME280;12845;52.042;6.838;2023-03-29T12:40:47;-18322.03;;;10.92;100.00
24746;BME280;12845;52.042;6.838;2023-03-29T12:43:30;-18324.38;;;11.01;100.00
24746;BME280;12845;52.042;6.838;2023-03-29T12:46:34;-18326.16;;;11.07;100.00
24746;BME280;12845;52.042;6.838;2023-03-29T12:49:08;-18326.44;;;11.09;100.00
24746;BME280;12845;52.042;6.838;2023-03-29T12:51:38;-18324.78;;;11.02;100.00
24746;BME280;12845;52.042;6.838;2023-03-29T12:54:07;-18325.19;;;11.04;100.00
24746;BME280;12845;52.042;6.838;2023-03-29T12:59:42;-18323.41;;;10.97;100.00
24746;BME280;12845;52.042;6.838;2023-03-29T13:07:42;-18324.09;;;11.00;100.00
24746;BME280;12845;52.042;6.838;2023-03-29T13:10:09;-18321.75;;;10.91;100.00
24746;BME280;12845;52.042;6.838;2023-03-29T13:12:52;-18319.28;;;10.82;100.00
24746;BME280;12845;52.042;6.838;2023-03-29T13:20:51;-18319.84;;;10.84;100.00
24746;BME280;12845;52.042;6.838;2023-03-29T13:32:14;-18329.19;;;11.19;100.00
24746;BME280;12845;52.042;6.838;2023-03-29T13:39:50;-18337.16;;;11.48;100.00
24746;BME280;12845;52.042;6.838;2023-03-29T13:44:44;-18342.22;;;11.67;100.00
24746;BME280;12845;52.042;6.838;2023-03-29T13:49:49;-18347.56;;;11.87;100.00
24746;BME280;12845;52.042;6.838;2023-03-29T13:52:25;-18351.97;;;12.04;100.00
24746;BME280;12845;52.042;6.838;2023-03-29T13:55:06;-18353.34;;;12.09;100.00
24746;BME280;12845;52.042;6.838;2023-03-29T13:57:41;-18351.97;;;12.04;100.00
24746;BME280;12845;52.042;6.838;2023-03-29T14:00:15;-18354.16;;;12.12;100.00
24746;BME280;12845;52.042;6.838;2023-03-29T14:02:50;-18355.00;;;12.15;100.00
24746;BME280;12845;52.042;6.838;2023-03-29T14:05:24;-18355.53;;;12.17;100.00
24746;BME280;12845;52.042;6.838;2023-03-29T14:07:53;-18358.00;;;12.26;100.00
24746;BME280;12845;52.042;6.838;2023-03-29T14:10:31;-18360.75;;;12.36;100.00
24746;BME280;12845;52.042;6.838;2023-03-29T14:12:59;-18363.50;;;12.47;100.00
24746;BME280;12845;52.042;6.838;2023-03-29T14:15:42;-18364.31;;;12.50;100.00
24746;BME280;12845;52.042;6.838;2023-03-29T14:18:14;-18367.34;;;12.61;100.00
24746;BME280;12845;52.042;6.838;2023-03-29T14:20:48;-18370.63;;;12.73;100.00
24746;BME280;12845;52.042;6.838;2023-03-29T14:23:19;-18370.91;;;12.74;100.00
24746;BME280;12845;52.042;6.838;2023-03-29T14:25:45;-18372.81;;;12.81;100.00
24746;BME280;12845;52.042;6.838;2023-03-29T14:28:27;-18375.16;;;12.90;100.00
24746;BME280;12845;52.042;6.838;2023-03-29T14:30:53;-18377.34;;;12.98;100.00
24746;BME280;12845;52.042;6.838;2023-03-29T14:33:27;-18379.41;;;13.06;100.00
24746;BME280;12845;52.042;6.838;2023-03-29T14:35:54;-18380.22;;;13.09;100.00
24746;BME280;12845;52.042;6.838;2023-03-29T14:38:21;-18381.88;;;13.15;100.00
24746;BME280;12845;52.042;6.838;2023-03-29T14:40:48;-18381.59;;;13.14;100.00
24746;BME280;12845;52.042;6.838;2023-03-29T14:43:17;-18380.22;;;13.09;100.00